Time;durP1;ratioP1;P1;durP2;ratioP2;P2;SDS_P1;SDS_P2;PMS_P1;PMS_P2;Temp;Humidity;BMP_temperature;BMP_pressure;BME280_temperature;BME280_humidity;BME280_pressure;Samples;Min_cycle;Max_cycle;Signal;HPM_P1;HPM_P2
2022/07/14 00:00:16;;;;;;;6.10;1.63;;;;;;;20.48;66.01;100939.97;5140114;27;20041;-75
2022/07/14 00:03:22;;;;;;;2.83;1.40;;;;;;;20.73;65.35;100933.38;5140395;27;20103;-75
2022/07/14 00:06:26;;;;;;;4.57;1.75;;;;;;;20.72;65.81;100943.16;5152789;27;20422;-74
2022/07/14 00:09:34;;;;;;;8.88;2.20;;;;;;;20.54;66.97;100942.94;5128616;27;20052;-74
2022/07/14 00:12:39;;;;;;;3.58;1.75;;;;;;;20.48;67.47;100927.50;5132098;27;20046;-74
2022/07/14 00:15:44;;;;;;;6.38;1.73;;;;;;;20.44;68.21;100936.72;5132268;27;20104;-74
2022/07/14 00:18:49;;;;;;;5.45;1.60;;;;;;;20.34;68.60;100925.25;5132152;27;20038;-74
2022/07/14 00:21:54;;;;;;;4.10;1.55;;;;;;;20.33;68.21;100923.56;5132468;27;20134;-76
2022/07/14 00:24:59;;;;;;;3.28;2.08;;;;;;;20.28;69.00;100925.78;5137567;27;20489;-74
2022/07/14 00:28:04;;;;;;;4.25;2.25;;;;;;;20.32;68.73;100927.19;5152448;27;20096;-74
2022/07/14 00:31:10;;;;;;;7.18;2.42;;;;;;;20.24;68.97;100937.63;5152284;27;20038;-74
2022/07/14 00:34:15;;;;;;;5.72;2.00;;;;;;;20.30;68.68;100931.81;5139151;27;20055;-74
2022/07/14 00:37:20;;;;;;;5.88;1.98;;;;;;;20.26;68.42;100933.03;5127652;27;20040;-74
2022/07/14 00:40:26;;;;;;;7.28;1.85;;;;;;;20.16;68.65;100928.50;5138878;27;20559;-74
2022/07/14 00:43:31;;;;;;;3.92;2.05;;;;;;;20.31;67.50;100921.03;5152766;27;20045;-74
2022/07/14 00:46:39;;;;;;;3.58;1.80;;;;;;;20.60;66.09;100921.16;5153062;27;20426;-74
2022/07/14 00:49:43;;;;;;;6.50;1.80;;;;;;;20.54;66.69;100904.91;5140075;27;20550;-73
2022/07/14 00:52:49;;;;;;;5.47;1.90;;;;;;;20.37;68.11;100903.72;5152582;27;20054;-73
2022/07/14 00:55:54;;;;;;;3.28;1.95;;;;;;;20.15;69.11;100910.06;5118538;27;20144;-73
2022/07/14 00:58:58;;;;;;;7.80;1.98;;;;;;;20.32;68.46;100916.56;5131009;27;20050;-73
2022/07/14 01:02:03;;;;;;;5.88;2.03;;;;;;;20.22;68.60;100916.50;5117966;27;20095;-73
2022/07/14 01:05:22;;;;;;;;;;;;;;;;;;;;;
2022/07/14 01:08:31;;;;;;;4.50;1.70;;;;;;;20.19;69.16;100914.97;5141728;27;20049;-74
2022/07/14 01:11:36;;;;;;;4.65;1.50;;;;;;;20.22;69.54;100897.94;5138514;27;20071;-76
2022/07/14 01:15:06;;;;;;;8.23;2.20;;;;;;;20.14;69.76;100913.69;5151741;27;20526;-75
2022/07/14 01:18:18;;;;;;;7.72;2.22;;;;;;;20.06;69.89;100911.69;5138744;27;20121;-75
2022/07/14 01:21:27;;;;;;;5.25;2.10;;;;;;;20.10;69.19;100907.81;5138647;27;20053;-76
2022/07/14 01:24:34;;;;;;;4.20;2.00;;;;;;;20.06;69.70;100911.69;5150718;27;20087;-76
2022/07/14 01:27:40;;;;;;;4.22;1.85;;;;;;;20.08;69.77;100911.56;5138775;27;20065;-76
2022/07/14 01:30:52;;;;;;;4.85;1.67;;;;;;;20.37;68.37;100909.03;5151632;27;20045;-75
2022/07/14 01:34:00;;;;;;;3.05;1.83;;;;;;;20.16;68.95;100911.72;5138483;27;20053;-76
2022/07/14 01:37:05;;;;;;;6.40;2.47;;;;;;;20.29;68.44;100909.69;5137960;27;20051;-75
2022/07/14 01:40:10;;;;;;;3.78;1.70;;;;;;;20.10;69.78;100913.13;5162656;27;20086;-75
2022/07/14 01:43:15;;;;;;;4.10;1.65;;;;;;;20.10;69.65;100912.25;5138084;27;20087;-75
2022/07/14 01:46:21;;;;;;;3.83;1.85;;;;;;;20.42;68.06;100896.19;5138363;27;20048;-76
2022/07/14 01:49:38;;;;;;;4.88;1.98;;;;;;;20.16;69.58;100901.94;5151144;27;20168;-76
2022/07/14 01:52:45;;;;;;;3.53;1.77;;;;;;;20.14;70.08;100906.56;5130250;27;20038;-76
2022/07/14 01:55:50;;;;;;;3.80;2.38;;;;;;;20.17;69.87;100906.31;5105275;27;20046;-76
2022/07/14 01:59:16;;;;;;;3.35;1.75;;;;;;;20.09;69.99;100911.44;5117170;27;20073;-76
2022/07/14 02:02:29;;;;;;;4.13;1.60;;;;;;;20.01;70.20;100908.59;5117227;27;20126;-76
2022/07/14 02:05:34;;;;;;;5.15;1.90;;;;;;;19.91;70.94;100891.75;5125525;27;20061;-76
2022/07/14 02:08:40;;;;;;;4.53;1.77;;;;;;;19.92;71.08;100896.97;5150690;27;20042;-76
2022/07/14 02:15:19;;;;;;;4.68;1.77;;;;;;;20.11;70.36;100893.56;5138082;27;20194;-75
2022/07/14 02:18:25;;;;;;;3.53;1.55;;;;;;;20.29;69.21;100895.56;5151300;27;20050;-75
2022/07/14 02:21:35;;;;;;;3.95;1.73;;;;;;;20.20;69.57;100900.72;5138176;27;20490;-75
2022/07/14 02:24:43;;;;;;;5.53;1.90;;;;;;;20.02;70.36;100904.97;5138442;27;20450;-75
2022/07/14 02:27:49;;;;;;;4.22;1.90;;;;;;;19.93;71.00;100888.00;5150930;27;20635;-76
2022/07/14 02:30:55;;;;;;;5.50;2.35;;;;;;;19.87;71.80;100890.34;5151093;27;20038;-76
2022/07/14 02:34:01;;;;;;;9.32;1.70;;;;;;;19.81;71.95;100890.88;5137754;27;20692;-76
2022/07/14 02:37:14;;;;;;;3.58;1.95;;;;;;;19.91;71.35;100897.06;5150742;27;20122;-76
2022/07/14 02:40:21;;;;;;;3.05;1.92;;;;;;;19.87;71.81;100898.31;5141932;27;20551;-76
2022/07/14 02:43:26;;;;;;;6.65;1.90;;;;;;;19.84;71.97;100895.94;5155461;27;20095;-75
2022/07/14 02:46:32;;;;;;;4.22;2.38;;;;;;;19.84;72.18;100891.44;5154046;27;20091;-76
2022/07/14 02:49:38;;;;;;;3.45;1.80;;;;;;;19.77;72.60;100889.47;5154195;27;20041;-76
2022/07/14 02:53:08;;;;;;;5.97;1.92;;;;;;;19.73;72.96;100891.53;5140535;27;20119;-76
2022/07/14 02:56:15;;;;;;;5.22;1.90;;;;;;;19.64;73.54;100895.81;5141514;27;20077;-76
2022/07/14 02:59:20;;;;;;;3.25;1.80;;;;;;;19.64;73.15;100895.81;5141771;27;20515;-80
2022/07/14 03:02:47;;;;;;;4.68;2.08;;;;;;;19.70;73.13;100889.97;5142535;27;20049;-76
2022/07/14 03:05:52;;;;;;;4.45;1.70;;;;;;;19.73;73.26;100905.66;5165233;27;20098;-75
2022/07/14 03:08:59;;;;;;;4.70;1.90;;;;;;;19.80;72.52;100905.13;5153741;27;20094;-76
2022/07/14 03:12:05;;;;;;;5.40;1.70;;;;;;;19.83;72.65;100888.94;5154097;27;20045;-75
2022/07/14 03:15:41;;;;;;;5.45;1.60;;;;;;;19.68;73.15;100883.97;5141577;27;20049;-76
2022/07/14 03:19:00;;;;;;;4.47;1.92;;;;;;;20.01;72.07;100887.38;5153687;27;20506;-76
2022/07/14 03:22:05;;;;;;;4.68;1.83;;;;;;;19.94;72.35;100896.81;5140624;27;20125;-75
2022/07/14 03:25:15;;;;;;;7.63;2.65;;;;;;;19.67;73.53;100900.84;5141644;27;20058;-75
2022/07/14 03:28:20;;;;;;;5.65;1.98;;;;;;;19.57;74.17;100910.53;5140952;27;20037;-75
2022/07/14 03:31:29;;;;;;;4.13;1.80;;;;;;;19.57;74.12;100902.56;5152793;27;20102;-75
2022/07/14 03:34:46;;;;;;;4.53;1.88;;;;;;;19.57;74.29;100893.78;5140216;27;20050;-75
2022/07/14 03:37:54;;;;;;;11.75;1.88;;;;;;;19.49;75.13;100892.59;5164102;27;20072;-76
2022/07/14 03:41:25;;;;;;;4.57;2.05;;;;;;;19.52;75.41;100895.00;5140490;27;20191;-76
2022/07/14 03:44:30;;;;;;;4.78;2.03;;;;;;;19.43;75.77;100892.28;5151792;27;20121;-76
2022/07/14 03:47:36;;;;;;;5.18;1.67;;;;;;;19.45;75.83;100879.72;5153521;27;20181;-74
2022/07/14 03:50:41;;;;;;;4.53;1.90;;;;;;;19.43;76.05;100876.34;5140870;27;20510;-66
2022/07/14 03:53:46;;;;;;;3.97;2.20;;;;;;;19.27;76.85;100882.97;5154386;27;20117;-66
2022/07/14 03:57:16;;;;;;;5.32;1.88;;;;;;;19.26;76.89;100886.56;5152749;27;20045;-67
2022/07/14 04:00:21;;;;;;;3.70;1.80;;;;;;;19.26;76.70;100875.97;5138869;27;20041;-66
2022/07/14 04:03:27;;;;;;;8.52;2.05;;;;;;;19.35;76.61;100874.34;5152082;27;20045;-71
2022/07/14 04:06:45;;;;;;;6.78;2.08;;;;;;;19.32;76.80;100884.38;5152219;27;20530;-76
2022/07/14 04:09:50;;;;;;;6.57;2.03;;;;;;;19.63;74.50;100867.56;5152303;27;20478;-69
2022/07/14 04:12:57;;;;;;;3.30;1.98;;;;;;;19.56;75.40;100861.13;5139201;27;20142;-73
2022/07/14 04:16:02;;;;;;;5.32;2.08;;;;;;;19.47;75.64;100862.72;5152515;27;20117;-72
2022/07/14 04:19:15;;;;;;;8.63;2.25;;;;;;;19.65;74.49;100868.31;5152477;27;20617;-72
2022/07/14 04:22:22;;;;;;;3.92;1.90;;;;;;;19.76;74.02;100870.06;5139540;27;20108;-72
2022/07/14 04:25:27;;;;;;;4.28;2.10;;;;;;;19.60;74.73;100870.50;5137831;27;20120;-73
2022/07/14 04:28:37;;;;;;;11.38;2.13;;;;;;;19.51;75.63;100876.56;5150070;27;20099;-71
2022/07/14 04:31:51;;;;;;;4.60;1.95;;;;;;;19.45;75.33;100880.56;5141489;27;20050;-71
2022/07/14 04:35:00;;;;;;;3.78;1.90;;;;;;;19.49;75.58;100886.44;5137992;27;20061;-68
2022/07/14 04:38:04;;;;;;;4.50;2.40;;;;;;;19.45;76.09;100880.56;5137926;27;20084;-71
2022/07/14 04:41:20;;;;;;;5.65;2.28;;;;;;;19.46;76.31;100886.72;5136444;27;20049;-63
2022/07/14 04:44:25;;;;;;;4.47;1.98;;;;;;;19.47;76.57;100888.41;5150033;27;20543;-63
2022/07/14 04:47:31;;;;;;;8.05;1.98;;;;;;;19.38;76.63;100889.19;5135835;27;20102;-64
2022/07/14 04:54:27;;;;;;;4.18;2.15;;;;;;;19.57;76.04;100897.28;5066093;28;20070;-64
2022/07/14 04:57:50;;;;;;;5.47;1.83;;;;;;;19.67;74.87;100900.03;5074193;27;20169;-64
2022/07/14 05:00:58;;;;;;;3.47;1.92;;;;;;;19.61;75.58;100905.81;5138108;27;20034;-64
2022/07/14 05:04:06;;;;;;;4.43;2.05;;;;;;;19.61;75.46;100906.66;5162146;27;20050;-64
2022/07/14 05:07:10;;;;;;;5.30;1.92;;;;;;;19.87;74.34;100887.69;5137789;27;20046;-70
2022/07/14 05:10:18;;;;;;;5.18;2.05;;;;;;;19.68;75.47;100897.22;5138724;27;20065;-65
2022/07/14 05:13:23;;;;;;;6.50;2.35;;;;;;;19.83;74.70;100894.25;5151720;27;20057;-65
2022/07/14 05:16:34;;;;;;;4.57;2.10;;;;;;;19.70;75.46;100889.16;5151738;27;20137;-65
2022/07/14 05:19:39;;;;;;;3.28;2.20;;;;;;;19.66;73.92;100893.88;5138613;27;20045;-65
2022/07/14 05:22:50;;;;;;;8.65;2.63;;;;;;;19.57;73.64;100894.63;5139545;27;20353;-63
2022/07/14 05:25:55;;;;;;;6.57;2.30;;;;;;;19.86;72.96;100886.03;5137707;27;20050;-64
2022/07/14 05:28:59;;;;;;;4.28;2.70;;;;;;;19.92;72.39;100883.69;5151257;27;20049;-64
2022/07/14 05:32:04;;;;;;;6.82;2.03;;;;;;;19.82;73.21;100887.28;5138469;27;20076;-67
2022/07/14 05:35:10;;;;;;;5.50;1.73;;;;;;;19.78;73.26;100883.19;5151203;27;20041;-64
2022/07/14 05:38:18;;;;;;;4.97;2.25;;;;;;;19.72;73.25;100893.34;5151281;27;20395;-64
2022/07/14 05:41:23;;;;;;;5.80;2.30;;;;;;;19.89;72.77;100899.03;5150959;27;20595;-65
2022/07/14 05:44:36;;;;;;;3.35;1.83;;;;;;;19.91;71.90;100902.38;5126601;27;20556;-64
2022/07/14 05:47:42;;;;;;;4.60;1.85;;;;;;;20.06;70.95;100902.88;5138522;27;20053;-64
2022/07/14 05:50:47;;;;;;;4.28;2.08;;;;;;;19.96;70.45;100900.19;5139294;27;20073;-64
2022/07/14 05:53:52;;;;;;;7.55;2.00;;;;;;;20.28;69.52;100888.59;5151085;27;20065;-64
2022/07/14 05:56:58;;;;;;;4.72;2.05;;;;;;;20.47;68.74;100896.63;5138760;27;20077;-64
2022/07/14 06:00:06;;;;;;;5.43;1.67;;;;;;;20.43;68.70;100866.00;5134847;27;20042;-64
2022/07/14 06:03:22;;;;;;;4.45;2.08;;;;;;;20.60;68.80;100862.72;5151316;27;20085;-64
2022/07/14 06:06:28;;;;;;;5.00;1.95;;;;;;;20.70;68.16;100899.09;5151379;27;20061;-64
2022/07/14 06:09:38;;;;;;;6.32;1.70;;;;;;;20.64;68.64;100879.22;5118088;27;20105;-68
2022/07/14 06:12:44;;;;;;;7.10;2.13;;;;;;;20.51;69.23;100876.81;5129842;27;20549;-65
2022/07/14 06:15:50;;;;;;;6.65;2.20;;;;;;;20.81;67.06;100864.44;5117427;27;20035;-65
2022/07/14 06:18:54;;;;;;;3.95;2.00;;;;;;;20.82;66.25;100866.09;5117527;27;20070;-64
2022/07/14 06:22:03;;;;;;;4.60;2.03;;;;;;;20.82;64.51;100871.44;5125849;27;20642;-65
2022/07/14 06:25:10;;;;;;;7.50;1.90;;;;;;;20.98;64.81;100882.34;5161764;27;20138;-65
2022/07/14 06:28:17;;;;;;;5.72;2.20;;;;;;;20.94;65.21;100872.97;5150637;27;20054;-64
2022/07/14 06:31:56;;;;;;;5.45;1.92;;;;;;;20.99;64.88;100867.22;5137889;27;20049;-65
2022/07/14 06:35:02;;;;;;;4.22;2.10;;;;;;;21.04;63.44;100884.44;5137858;27;20138;-64
2022/07/14 06:38:07;;;;;;;4.72;1.98;;;;;;;20.87;63.45;100879.84;5137646;27;20046;-65
2022/07/14 06:41:12;;;;;;;5.65;2.20;;;;;;;20.81;64.13;100867.94;5138317;27;20522;-65
2022/07/14 06:44:22;;;;;;;5.93;2.20;;;;;;;20.91;63.81;100870.59;5138019;27;20559;-64
2022/07/14 06:47:30;;;;;;;5.80;1.80;;;;;;;21.10;63.35;100862.63;5137611;27;20046;-64
2022/07/14 06:50:35;;;;;;;3.95;2.20;;;;;;;21.05;63.24;100872.00;5137809;27;20041;-64
2022/07/14 06:53:49;;;;;;;5.10;2.00;;;;;;;21.19;62.89;100870.75;5150231;27;20042;-64
2022/07/14 06:56:54;;;;;;;8.25;2.28;;;;;;;21.24;63.74;100865.84;5149511;27;20095;-65
2022/07/14 06:59:58;;;;;;;6.70;2.40;;;;;;;21.21;63.72;100874.09;5149798;27;20049;-64
2022/07/14 07:03:11;;;;;;;6.57;2.90;;;;;;;21.33;62.99;100870.31;5150235;27;20098;-64
2022/07/14 07:09:43;;;;;;;7.38;2.85;;;;;;;21.34;62.56;100861.34;5144347;27;20038;-64
2022/07/14 07:12:48;;;;;;;6.35;2.75;;;;;;;21.33;63.43;100865.00;5143009;27;20050;-64
2022/07/14 07:15:53;;;;;;;5.88;2.50;;;;;;;21.59;62.12;100865.25;5148637;27;20142;-65
2022/07/14 07:18:58;;;;;;;7.63;2.67;;;;;;;21.21;63.09;100855.47;5148295;27;20050;-64
2022/07/14 07:22:12;;;;;;;6.75;2.33;;;;;;;21.35;63.54;100863.91;5149456;27;20103;-64
2022/07/14 07:25:17;;;;;;;5.65;2.38;;;;;;;21.51;62.92;100860.66;5152819;27;20088;-65
2022/07/14 07:28:26;;;;;;;8.43;3.13;;;;;;;21.55;63.05;100854.06;5152798;27;20042;-65
2022/07/14 07:31:32;;;;;;;4.30;2.70;;;;;;;21.61;63.09;100847.34;5139719;27;20041;-65
2022/07/14 07:34:39;;;;;;;5.15;2.20;;;;;;;21.70;63.42;100856.28;5152559;27;20513;-64
2022/07/14 07:37:45;;;;;;;10.73;3.47;;;;;;;21.78;61.94;100856.38;5153126;27;20563;-64
2022/07/14 07:40:56;;;;;;;8.20;2.35;;;;;;;21.65;62.06;100866.53;5153711;27;20052;-65
2022/07/14 07:44:00;;;;;;;6.07;2.50;;;;;;;21.49;62.68;100870.59;5153427;27;20083;-64
2022/07/14 07:47:08;;;;;;;7.90;2.60;;;;;;;21.49;62.07;100869.78;5152670;27;20077;-64
2022/07/14 07:50:13;;;;;;;5.32;2.35;;;;;;;21.42;62.59;100873.97;5152907;27;20545;-64
2022/07/14 07:53:19;;;;;;;7.30;2.97;;;;;;;21.58;62.35;100860.94;5151748;27;20099;-64
2022/07/14 07:56:24;;;;;;;9.35;2.40;;;;;;;21.78;61.91;100867.88;5152568;27;20046;-64
2022/07/14 07:59:29;;;;;;;5.97;2.70;;;;;;;22.01;61.51;100876.34;5151808;27;20057;-64
2022/07/14 08:02:44;;;;;;;8.52;3.22;;;;;;;21.67;61.96;100872.53;5151438;27;20056;-65
2022/07/14 08:05:50;;;;;;;7.32;3.03;;;;;;;21.63;62.47;100865.81;5152226;27;20137;-64
2022/07/14 08:08:57;;;;;;;10.73;3.35;;;;;;;21.68;61.82;100858.25;5130941;27;20057;-64
2022/07/14 08:12:06;;;;;;;7.38;2.63;;;;;;;21.64;61.52;100862.19;5131288;27;20078;-66
2022/07/14 08:15:11;;;;;;;9.85;2.95;;;;;;;21.81;61.31;100861.44;5131250;27;20054;-65
2022/07/14 08:18:21;;;;;;;6.53;2.30;;;;;;;21.98;60.80;100851.84;5151772;27;20075;-65
2022/07/14 08:21:34;;;;;;;6.03;2.17;;;;;;;22.07;60.06;100856.28;5151966;27;20166;-66
2022/07/14 08:24:41;;;;;;;7.40;2.80;;;;;;;21.78;59.53;100859.88;5129751;27;20071;-67
2022/07/14 08:27:49;;;;;;;7.55;3.00;;;;;;;21.66;60.85;100858.38;5129589;27;20061;-69
2022/07/14 08:31:03;;;;;;;9.02;2.80;;;;;;;21.74;61.28;100860.34;5131609;27;20058;-66
2022/07/14 08:34:20;;;;;;;6.32;2.72;;;;;;;22.24;59.66;100862.72;5130803;27;20050;-66
2022/07/14 08:37:31;;;;;;;6.15;2.75;;;;;;;22.35;59.75;100867.81;5118619;27;20331;-64
2022/07/14 08:40:39;;;;;;;12.80;3.30;;;;;;;22.04;59.88;100875.22;5131180;27;20397;-64
2022/07/14 08:43:49;;;;;;;9.48;2.83;;;;;;;22.06;60.16;100862.59;5131499;27;20061;-64
2022/07/14 08:46:57;;;;;;;7.43;3.03;;;;;;;21.77;61.11;100860.03;5151625;27;20072;-64
2022/07/14 08:50:03;;;;;;;12.07;2.72;;;;;;;22.24;59.74;100854.72;5151848;27;20460;-64
2022/07/14 08:53:10;;;;;;;10.23;3.35;;;;;;;22.23;59.32;100859.19;5150333;27;20054;-64
2022/07/14 08:56:15;;;;;;;9.88;3.22;;;;;;;22.18;60.60;100866.78;5151213;27;20061;-65
2022/07/14 08:59:21;;;;;;;5.65;2.67;;;;;;;22.47;59.41;100855.97;5149923;27;20046;-65
2022/07/14 09:02:25;;;;;;;6.28;2.88;;;;;;;22.51;58.10;100857.34;5144417;27;20125;-65
2022/07/14 09:05:31;;;;;;;5.97;2.60;;;;;;;22.23;57.95;100853.84;5150237;27;20041;-65
2022/07/14 09:08:56;;;;;;;5.93;2.10;;;;;;;21.78;57.44;100846.56;5150916;27;20105;-64
2022/07/14 09:12:06;;;;;;;5.55;1.98;;;;;;;22.15;56.57;100842.25;5151236;27;20391;-64
2022/07/14 09:19:06;;;;;;;6.78;1.95;;;;;;;22.44;52.03;100834.97;5150897;27;20110;-64
2022/07/14 09:22:13;;;;;;;10.02;2.22;;;;;;;22.29;52.29;100831.13;5138011;27;20131;-64
2022/07/14 09:25:18;;;;;;;10.07;2.03;;;;;;;22.30;51.44;100832.78;5150908;27;20467;-64
2022/07/14 09:28:26;;;;;;;8.75;2.08;;;;;;;22.52;50.95;100826.22;5150766;27;20091;-71
2022/07/14 09:31:33;;;;;;;10.02;1.90;;;;;;;22.63;48.00;100819.84;5125606;27;21143;-65
2022/07/14 09:34:45;;;;;;;5.63;1.67;;;;;;;22.51;48.26;100821.88;5117886;27;20057;-69
2022/07/14 09:37:52;;;;;;;2.55;1.13;;;;;;;22.36;47.33;100829.53;5130621;27;20115;-64
2022/07/14 09:41:08;;;;;;;5.10;2.10;;;;;;;22.47;47.28;100824.00;5130518;27;20182;-64
2022/07/14 09:44:17;;;;;;;9.15;2.70;;;;;;;22.68;48.11;100818.38;5131018;27;20519;-64
2022/07/14 09:47:24;;;;;;;6.45;1.58;;;;;;;22.94;46.67;100821.19;5131001;27;20042;-64
2022/07/14 09:50:36;;;;;;;5.15;1.98;;;;;;;22.94;44.51;100806.97;5130354;27;20078;-63
2022/07/14 09:53:45;;;;;;;6.65;1.92;;;;;;;22.82;44.42;100806.38;5130193;27;20077;-63
2022/07/14 09:56:50;;;;;;;7.03;2.10;;;;;;;23.10;44.82;100792.94;5141739;27;20053;-63
2022/07/14 10:00:08;;;;;;;4.10;2.00;;;;;;;23.01;45.41;100786.72;5150954;27;20099;-65
2022/07/14 10:03:17;;;;;;;4.00;1.65;;;;;;;23.09;44.50;100776.09;5149589;27;20042;-67
2022/07/14 10:06:22;;;;;;;5.18;1.63;;;;;;;23.26;43.33;100787.75;5128158;27;20071;-64
2022/07/14 10:09:38;;;;;;;4.88;1.80;;;;;;;23.28;40.60;100779.56;5129504;27;20061;-68
2022/07/14 10:12:44;;;;;;;3.58;1.33;;;;;;;23.25;38.78;100780.72;5108305;28;20054;-64
2022/07/14 10:15:50;;;;;;;4.78;1.92;;;;;;;23.43;41.42;100778.84;5108480;28;20046;-64
2022/07/14 10:18:54;;;;;;;7.80;1.83;;;;;;;23.46;41.81;100774.19;5108611;28;20617;-64
2022/07/14 10:22:29;;;;;;;9.73;1.67;;;;;;;23.41;36.09;100778.16;5109185;28;20042;-64
2022/07/14 10:25:37;;;;;;;4.30;1.30;;;;;;;23.71;37.46;100760.00;5122314;27;20042;-64
2022/07/14 10:28:42;;;;;;;4.13;1.60;;;;;;;23.85;38.35;100762.06;5129477;27;20273;-64
2022/07/14 10:32:03;;;;;;;8.55;2.08;;;;;;;23.85;40.10;100756.72;5129275;27;20074;-64
2022/07/14 10:35:45;;;;;;;5.45;1.58;;;;;;;24.09;38.70;100757.78;5128422;28;20083;-65
2022/07/14 10:38:59;;;;;;;7.82;1.60;;;;;;;23.80;38.79;100753.72;5128294;28;20063;-62
2022/07/14 10:42:33;;;;;;;6.35;1.70;;;;;;;24.04;38.14;100746.78;5128586;28;20100;-63
2022/07/14 10:45:51;;;;;;;7.88;1.80;;;;;;;24.26;38.33;100750.69;5129468;28;20046;-71
2022/07/14 10:48:57;;;;;;;7.32;1.85;;;;;;;24.20;38.73;100749.50;5128771;28;20092;-71
2022/07/14 10:52:45;;;;;;;6.25;1.90;;;;;;;24.47;37.90;100755.56;5123995;27;20054;-69
2022/07/14 10:55:50;;;;;;;5.88;2.45;;;;;;;24.57;39.10;100757.13;5102324;28;20050;-64
2022/07/14 10:59:26;;;;;;;4.05;1.50;;;;;;;24.82;38.41;100759.78;5109945;28;20047;-64
2022/07/14 11:02:32;;;;;;;5.07;1.40;;;;;;;24.62;37.36;100764.63;5112557;28;20062;-63
2022/07/14 11:06:00;;;;;;;7.10;2.00;;;;;;;24.98;38.29;100758.94;5115171;27;20156;-63
2022/07/14 11:09:30;;;;;;;5.90;1.60;;;;;;;25.13;38.51;100754.63;5151853;27;20483;-63
2022/07/14 11:13:23;;;;;;;5.15;1.92;;;;;;;25.21;38.13;100751.09;5132770;27;20158;-74
2022/07/14 11:17:07;;;;;;;5.25;1.50;;;;;;;25.03;36.65;100753.94;5120945;27;20038;-77
2022/07/14 11:21:07;;;;;;;5.22;1.52;;;;;;;24.91;36.12;100768.66;5133389;27;20511;-77
2022/07/14 11:24:16;;;;;;;6.82;1.80;;;;;;;24.95;36.17;100770.84;5109334;27;20092;-76
2022/07/14 11:31:18;;;;;;;4.47;1.30;;;;;;;25.11;36.27;100753.06;5132845;27;20034;-76
2022/07/14 11:38:32;;;;;;;6.63;1.50;;;;;;;25.83;33.80;100747.75;5132057;27;20084;-78
2022/07/14 11:42:03;;;;;;;3.70;1.10;;;;;;;25.67;34.40;100744.09;5133021;27;20138;-76
2022/07/14 11:49:18;;;;;;;7.22;1.67;;;;;;;25.51;33.89;100757.53;5132683;27;20096;-77
2022/07/14 11:52:50;;;;;;;4.45;1.80;;;;;;;24.85;35.04;100769.31;5131871;27;20107;-77
2022/07/14 11:55:58;;;;;;;3.67;1.40;;;;;;;24.93;35.25;100766.66;5132602;27;20124;-77
2022/07/14 11:59:19;;;;;;;6.00;1.58;;;;;;;25.05;35.23;100770.66;5131344;27;20518;-77
2022/07/14 12:02:36;;;;;;;3.25;1.35;;;;;;;25.12;35.27;100777.03;5132047;27;20046;-77
2022/07/14 12:05:44;;;;;;;4.57;1.48;;;;;;;25.12;35.75;100787.75;5119614;27;20667;-77
2022/07/14 12:09:38;;;;;;;;;;;;;;;24.75;37.11;100775.66;5151976;27;20084;-77
2022/07/14 12:12:51;;;;;;;7.05;1.73;;;;;;;24.72;36.23;100786.69;5152692;27;20047;-76
2022/07/14 12:16:04;;;;;;;7.15;1.63;;;;;;;24.32;36.90;100788.28;5151885;27;20559;-77
2022/07/14 12:19:29;;;;;;;5.35;1.58;;;;;;;24.37;37.60;100793.13;5151967;27;20037;-77
2022/07/14 12:22:45;;;;;;;5.45;1.52;;;;;;;24.75;36.59;100805.06;5153123;27;20519;-77
2022/07/14 12:25:49;;;;;;;6.28;1.80;;;;;;;24.74;36.87;100798.06;5151926;27;20099;-77
2022/07/14 12:29:02;;;;;;;4.80;1.50;;;;;;;24.81;37.26;100804.41;5163673;27;20052;-78
2022/07/14 12:32:39;;;;;;;6.47;2.00;;;;;;;24.98;37.91;100815.13;5142123;27;20099;-78
2022/07/14 12:36:17;;;;;;;6.03;2.17;;;;;;;24.48;39.91;100810.72;5140440;27;20617;-77
2022/07/14 12:43:26;;;;;;;5.22;1.98;;;;;;;24.15;43.22;100815.91;5151700;27;20538;-76
2022/07/14 12:46:37;;;;;;;7.40;2.05;;;;;;;23.85;42.93;100818.16;5151329;27;20498;-77
2022/07/14 12:49:56;;;;;;;6.95;1.90;;;;;;;24.13;43.22;100809.94;5130654;27;20357;-77
2022/07/14 12:53:12;;;;;;;6.15;2.10;;;;;;;24.04;44.46;100810.88;5119318;27;20041;-77
2022/07/14 12:56:33;;;;;;;8.73;2.88;;;;;;;23.79;45.06;100796.59;5130335;27;20050;-78
2022/07/14 12:59:38;;;;;;;5.85;2.22;;;;;;;24.17;43.99;100792.56;5130471;27;20554;-77
2022/07/14 13:02:47;;;;;;;6.43;2.20;;;;;;;24.46;43.96;100792.16;5143148;27;20092;-77
2022/07/14 13:06:00;;;;;;;7.75;2.45;;;;;;;25.07;43.28;100787.34;5138319;27;20054;-78
2022/07/14 13:09:12;;;;;;;6.35;2.45;;;;;;;25.00;43.32;100789.88;5150748;27;20498;-77
2022/07/14 13:12:28;;;;;;;6.50;2.10;;;;;;;24.87;42.94;100778.84;5150560;27;20538;-76
2022/07/14 13:15:33;;;;;;;7.78;2.10;;;;;;;25.63;40.74;100774.91;5151626;27;20088;-76
2022/07/14 13:18:58;;;;;;;6.38;2.05;;;;;;;25.98;40.10;100772.81;5151381;27;20046;-77
2022/07/14 13:22:10;;;;;;;7.25;2.63;;;;;;;26.34;38.63;100767.75;5118217;27;20123;-70
2022/07/14 13:25:14;;;;;;;7.18;2.47;;;;;;;25.78;38.02;100761.63;5129607;27;20523;-72
2022/07/14 13:28:41;;;;;;;10.32;2.47;;;;;;;26.11;38.71;100778.44;5129337;27;20083;-78
2022/07/14 13:31:46;;;;;;;6.20;2.60;;;;;;;26.12;38.45;100768.53;5146140;27;20053;-79
2022/07/14 13:34:52;;;;;;;4.18;1.70;;;;;;;27.11;36.02;100767.66;5151181;27;20065;-78
2022/07/14 13:37:57;;;;;;;7.15;2.50;;;;;;;26.63;35.63;100771.59;5137300;27;20518;-77
2022/07/14 13:41:13;;;;;;;5.75;2.30;;;;;;;25.98;36.22;100772.81;5149953;27;20038;-79
2022/07/14 13:44:20;;;;;;;6.68;2.15;;;;;;;26.12;35.06;100766.69;5150643;27;20299;-79
2022/07/14 13:47:25;;;;;;;5.60;2.30;;;;;;;26.20;35.42;100761.31;5137502;27;20069;-78
2022/07/14 13:53:54;;;;;;;7.47;2.30;;;;;;;26.98;35.56;100770.13;5150315;27;20572;-79
2022/07/14 13:57:13;;;;;;;6.90;2.00;;;;;;;26.14;32.50;100767.38;5150054;27;20038;-79
2022/07/14 14:00:21;;;;;;;6.15;1.90;;;;;;;25.86;32.66;100774.19;5148948;27;20095;-77
2022/07/14 14:03:29;;;;;;;4.88;1.83;;;;;;;26.73;31.66;100766.81;5137159;27;20046;-78
2022/07/14 14:06:35;;;;;;;6.20;1.88;;;;;;;27.45;30.38;100760.97;5150251;27;20471;-80
2022/07/14 14:09:55;;;;;;;;;;;;;;;;;;;;;
2022/07/14 14:13:07;;;;;;;3.95;1.85;;;;;;;29.28;27.14;100747.22;5131320;27;20050;-80
2022/07/14 14:16:14;;;;;;;6.07;2.30;;;;;;;30.74;25.66;100736.16;5150022;27;20081;-79
2022/07/14 14:19:20;;;;;;;6.65;2.35;;;;;;;28.03;28.50;100745.03;5149633;27;20098;-79
2022/07/14 14:22:24;;;;;;;6.88;2.53;;;;;;;26.41;31.66;100767.88;5149586;27;20094;-80
2022/07/14 14:25:39;;;;;;;6.95;2.17;;;;;;;26.47;31.42;100761.78;5149784;27;20045;-80
2022/07/14 14:28:53;;;;;;;5.75;1.70;;;;;;;27.28;30.95;100752.28;5149313;27;20049;-80
2022/07/14 14:31:58;;;;;;;7.63;2.03;;;;;;;29.52;26.95;100751.31;5149344;27;20092;-80
2022/07/14 14:35:04;;;;;;;5.22;2.17;;;;;;;33.05;22.26;100749.78;5149307;27;20045;-80
2022/07/14 14:38:15;;;;;;;5.57;2.20;;;;;;;31.15;24.04;100752.16;5149754;27;20658;-79
2022/07/14 14:41:24;;;;;;;6.05;2.35;;;;;;;31.68;23.51;100753.91;5148676;27;20037;-80
2022/07/14 14:44:28;;;;;;;6.75;2.20;;;;;;;31.39;24.54;100749.84;5128737;27;20050;-80
2022/07/14 14:47:43;;;;;;;11.10;2.10;;;;;;;32.44;22.77;100757.75;5128667;27;20050;-80
2022/07/14 14:50:47;;;;;;;4.72;1.77;;;;;;;33.37;21.63;100756.97;5128353;27;20514;-80
2022/07/14 14:53:56;;;;;;;6.40;2.00;;;;;;;31.87;22.86;100746.78;5128794;27;20150;-80
2022/07/14 14:57:05;;;;;;;7.50;1.80;;;;;;;31.26;23.95;100751.50;5127224;27;20107;-80
2022/07/14 15:00:14;;;;;;;5.10;2.15;;;;;;;27.12;28.78;100761.31;5149184;27;20494;-80
2022/07/14 15:03:29;;;;;;;5.10;1.60;;;;;;;27.38;29.35;100764.56;5149141;27;20391;-81
2022/07/14 15:06:54;;;;;;;7.68;2.30;;;;;;;28.22;27.98;100765.09;5149274;27;20432;-80
2022/07/14 15:10:24;;;;;;;7.13;2.30;;;;;;;32.75;23.21;100744.19;5149309;27;20599;-78
2022/07/14 15:13:53;;;;;;;;;;;;;;;;;;;;;
2022/07/14 15:17:06;;;;;;;5.57;2.10;;;;;;;30.34;25.35;100755.84;5148353;27;20038;-77
2022/07/14 15:20:46;;;;;;;4.68;1.83;;;;;;;32.78;23.17;100759.19;5123921;27;20050;-78
2022/07/14 15:24:18;;;;;;;4.05;2.03;;;;;;;34.71;20.19;100746.88;5147596;27;20400;-78
2022/07/14 15:27:28;;;;;;;8.23;2.90;;;;;;;33.46;20.90;100751.03;5124727;27;20087;-78